createdAt,value
2022-09-12T00:01:36.109Z,13.44
2022-09-12T00:04:02.340Z,13.43
2022-09-12T00:06:28.485Z,13.36
2022-09-12T00:08:54.651Z,13.42
2022-09-12T00:11:20.905Z,13.26
2022-09-12T00:13:47.115Z,13.20
2022-09-12T00:16:13.293Z,13.11
2022-09-12T00:18:39.401Z,13.18
2022-09-12T00:21:05.854Z,13.29
2022-09-12T00:23:32.316Z,13.41
2022-09-12T00:25:58.401Z,13.37
2022-09-12T00:28:24.489Z,13.38
2022-09-12T00:30:50.618Z,13.57
2022-09-12T00:33:16.705Z,13.51
2022-09-12T00:35:42.787Z,13.68
2022-09-12T00:38:08.884Z,13.70
2022-09-12T00:40:34.976Z,13.72
2022-09-12T00:43:01.077Z,13.60
2022-09-12T00:45:27.253Z,13.64
2022-09-12T00:47:53.399Z,13.67
2022-09-12T00:50:19.503Z,13.56
2022-09-12T00:52:45.609Z,13.53
2022-09-12T00:55:11.703Z,13.60
2022-09-12T00:57:37.794Z,13.63
2022-09-12T01:00:03.923Z,13.50
2022-09-12T01:02:29.996Z,13.43
2022-09-12T01:04:56.105Z,13.39
2022-09-12T01:07:22.266Z,13.33
2022-09-12T01:09:48.358Z,13.25
2022-09-12T01:12:14.462Z,13.27
2022-09-12T01:14:40.578Z,13.38
2022-09-12T01:17:06.662Z,13.40
2022-09-12T01:19:32.770Z,13.51
2022-09-12T01:21:58.892Z,13.42
2022-09-12T01:24:24.979Z,13.33
2022-09-12T01:26:51.072Z,13.21
2022-09-12T01:29:17.163Z,13.14
2022-09-12T01:31:43.258Z,13.07
2022-09-12T01:34:09.345Z,13.04
2022-09-12T01:36:35.451Z,13.05
2022-09-12T01:39:01.554Z,13.04
2022-09-12T01:41:27.650Z,13.08
2022-09-12T01:43:53.759Z,13.09
2022-09-12T01:46:19.867Z,13.00
2022-09-12T01:48:46.045Z,12.93
2022-09-12T01:51:12.246Z,13.08
2022-09-12T01:53:38.336Z,13.07
2022-09-12T01:56:04.437Z,13.05
2022-09-12T01:58:30.568Z,13.08
2022-09-12T02:00:56.718Z,13.07
2022-09-12T02:03:22.852Z,12.95
2022-09-12T02:05:48.969Z,12.87
2022-09-12T02:08:15.063Z,12.93
2022-09-12T02:10:41.154Z,12.77
2022-09-12T02:13:07.293Z,12.69
2022-09-12T02:15:33.382Z,12.67
2022-09-12T02:17:59.476Z,12.69
2022-09-12T02:20:46.956Z,12.67
2022-09-12T02:23:11.647Z,12.62
2022-09-12T02:25:37.751Z,12.64
2022-09-12T02:28:03.849Z,12.55
2022-09-12T02:30:30.028Z,12.63
2022-09-12T02:32:56.205Z,12.69
2022-09-12T02:35:22.371Z,12.69
2022-09-12T02:37:48.471Z,12.66
2022-09-12T02:40:14.648Z,12.67
2022-09-12T02:42:40.774Z,12.54
2022-09-12T02:45:06.869Z,12.54
2022-09-12T02:47:32.984Z,12.68
2022-09-12T02:49:59.061Z,12.54
2022-09-12T02:52:25.154Z,12.70
2022-09-12T02:54:51.273Z,12.56
2022-09-12T02:57:21.901Z,12.54
2022-09-12T02:59:48.842Z,12.52
2022-09-12T03:02:15.024Z,12.50
2022-09-12T03:04:41.168Z,12.42
2022-09-12T03:07:07.283Z,12.41
2022-09-12T03:09:33.388Z,12.44
2022-09-12T03:11:59.464Z,12.44
2022-09-12T03:14:25.536Z,12.47
2022-09-12T03:16:51.656Z,12.42
2022-09-12T03:19:17.742Z,12.42
2022-09-12T03:21:43.836Z,12.51
2022-09-12T03:24:09.949Z,12.55
2022-09-12T03:26:36.031Z,12.46
2022-09-12T03:29:02.120Z,12.50
2022-09-12T03:31:28.728Z,12.56
2022-09-12T03:33:54.813Z,12.51
2022-09-12T03:36:20.914Z,12.43
2022-09-12T03:38:47.236Z,12.49
2022-09-12T03:41:13.368Z,12.45
2022-09-12T03:43:39.467Z,12.43
2022-09-12T03:46:05.641Z,12.46
2022-09-12T03:48:31.774Z,12.55
2022-09-12T03:50:57.895Z,12.55
2022-09-12T03:53:24.006Z,12.57
2022-09-12T03:55:50.093Z,12.61
2022-09-12T03:58:16.198Z,12.52
2022-09-12T04:00:42.305Z,12.51
2022-09-12T04:03:08.405Z,12.59
2022-09-12T04:05:34.494Z,12.61
2022-09-12T04:08:00.606Z,12.47
2022-09-12T04:10:26.693Z,12.43
2022-09-12T04:12:52.789Z,12.36
2022-09-12T04:15:18.909Z,12.32
2022-09-12T04:17:44.994Z,12.39
2022-09-12T04:20:11.081Z,12.44
2022-09-12T04:22:37.690Z,12.58
2022-09-12T04:25:03.780Z,12.68
2022-09-12T04:27:29.860Z,12.64
2022-09-12T04:29:55.968Z,12.51
2022-09-12T04:32:22.110Z,12.49
2022-09-12T04:34:48.208Z,12.42
2022-09-12T04:37:14.310Z,12.44
2022-09-12T04:39:40.470Z,12.38
2022-09-12T04:42:06.619Z,12.42
2022-09-12T04:44:32.726Z,12.39
2022-09-12T04:46:58.801Z,12.50
2022-09-12T04:49:24.876Z,12.51
2022-09-12T04:51:51.012Z,12.57
2022-09-12T04:54:17.096Z,12.50
2022-09-12T04:56:43.191Z,12.58
2022-09-12T04:59:09.327Z,12.71
2022-09-12T05:01:35.471Z,12.88
2022-09-12T05:04:01.593Z,12.96
2022-09-12T05:06:27.700Z,13.02
2022-09-12T05:08:53.797Z,12.89
2022-09-12T05:11:24.577Z,12.65
2022-09-12T05:13:51.651Z,12.64
2022-09-12T05:16:17.827Z,12.75
2022-09-12T05:18:44.004Z,12.77
2022-09-12T05:21:10.217Z,13.04
2022-09-12T05:23:36.298Z,13.16
2022-09-12T05:26:02.390Z,13.28
2022-09-12T05:28:28.500Z,13.11
2022-09-12T05:30:54.626Z,13.06
2022-09-12T05:33:24.926Z,13.10
2022-09-12T05:35:51.243Z,13.18
2022-09-12T05:38:17.342Z,13.15
2022-09-12T05:40:43.434Z,13.20
2022-09-12T05:43:09.532Z,13.12
2022-09-12T05:45:35.643Z,13.29
2022-09-12T05:48:01.761Z,13.48
2022-09-12T05:50:27.870Z,13.54
2022-09-12T05:52:53.983Z,13.48
2022-09-12T05:55:20.069Z,13.41
2022-09-12T05:57:46.192Z,13.44
2022-09-12T06:00:12.346Z,13.50
2022-09-12T06:02:38.475Z,13.61
2022-09-12T06:05:04.622Z,13.53
2022-09-12T06:07:30.716Z,13.48
2022-09-12T06:09:56.806Z,13.60
2022-09-12T06:12:22.913Z,13.56
2022-09-12T06:14:49.006Z,13.56
2022-09-12T06:17:15.107Z,13.68
2022-09-12T06:19:41.223Z,13.68
2022-09-12T06:22:07.310Z,13.58
2022-09-12T06:24:33.407Z,13.70
2022-09-12T06:26:59.578Z,13.77
2022-09-12T06:29:25.684Z,13.84
2022-09-12T06:31:51.772Z,13.79
2022-09-12T06:34:17.875Z,13.82
2022-09-12T06:36:43.956Z,13.87
2022-09-12T06:39:10.045Z,13.88
2022-09-12T06:41:37.646Z,14.06
2022-09-12T06:44:06.535Z,14.13
2022-09-12T06:46:32.627Z,14.31
2022-09-12T06:48:58.752Z,14.38
2022-09-12T06:51:24.883Z,14.46
2022-09-12T06:53:50.961Z,14.49
2022-09-12T06:56:17.081Z,14.54
2022-09-12T06:58:43.172Z,14.59
2022-09-12T07:01:09.330Z,14.65
2022-09-12T07:03:35.494Z,14.72
2022-09-12T07:06:01.582Z,14.81
2022-09-12T07:08:27.664Z,14.86
2022-09-12T07:10:53.771Z,14.97
2022-09-12T07:13:19.859Z,15.00
2022-09-12T07:15:45.955Z,15.00
2022-09-12T07:18:12.081Z,15.01
2022-09-12T07:20:38.164Z,15.10
2022-09-12T07:23:04.253Z,15.16
2022-09-12T07:25:30.372Z,15.22
2022-09-12T07:27:56.457Z,15.33
2022-09-12T07:30:22.587Z,15.43
2022-09-12T07:32:48.712Z,15.50
2022-09-12T07:35:14.814Z,15.60
2022-09-12T07:37:40.906Z,15.70
2022-09-12T07:40:07.097Z,15.79
2022-09-12T07:42:33.198Z,15.90
2022-09-12T07:44:59.310Z,15.95
2022-09-12T07:47:25.417Z,16.05
2022-09-12T07:49:51.518Z,16.30
2022-09-12T07:52:17.642Z,16.26
2022-09-12T07:54:43.755Z,16.34
2022-09-12T07:57:09.864Z,16.45
2022-09-12T07:59:51.939Z,16.60
2022-09-12T08:02:18.880Z,16.54
2022-09-12T08:04:44.977Z,16.63
2022-09-12T08:07:11.091Z,16.69
2022-09-12T08:09:37.239Z,16.76
2022-09-12T08:12:03.338Z,16.87
2022-09-12T08:14:29.427Z,16.99
2022-09-12T08:16:55.565Z,17.03
2022-09-12T08:19:21.682Z,17.15
2022-09-12T08:21:47.799Z,17.22
2022-09-12T08:24:13.971Z,17.32
2022-09-12T08:26:40.095Z,17.38
2022-09-12T08:29:06.230Z,17.51
2022-09-12T08:31:32.411Z,17.63
2022-09-12T08:33:58.519Z,17.70
2022-09-12T08:36:24.627Z,17.86
2022-09-12T08:38:50.726Z,17.91
2022-09-12T08:41:16.820Z,18.05
2022-09-12T08:43:42.995Z,18.12
2022-09-12T08:46:09.213Z,18.29
2022-09-12T08:48:35.349Z,18.35
2022-09-12T08:51:01.487Z,18.33
2022-09-12T08:53:27.580Z,18.46
2022-09-12T08:55:53.672Z,18.57
2022-09-12T08:58:19.801Z,18.67
2022-09-12T09:00:45.906Z,18.71
2022-09-12T09:03:12.021Z,18.83
2022-09-12T09:05:38.121Z,18.88
2022-09-12T09:08:04.763Z,19.00
2022-09-12T09:10:30.848Z,19.01
2022-09-12T09:12:56.941Z,19.08
2022-09-12T09:15:23.070Z,19.23
2022-09-12T09:17:49.152Z,19.23
2022-09-12T09:20:15.255Z,19.26
2022-09-12T09:22:41.375Z,19.28
2022-09-12T09:25:07.465Z,19.41
2022-09-12T09:27:41.572Z,19.48
2022-09-12T09:30:07.871Z,19.56
2022-09-12T09:32:33.969Z,19.61
2022-09-12T09:35:00.072Z,19.67
2022-09-12T09:37:26.207Z,19.59
2022-09-12T09:39:52.367Z,19.70
2022-09-12T09:42:18.505Z,19.82
2022-09-12T09:44:44.617Z,19.67
2022-09-12T09:47:10.715Z,19.83
2022-09-12T09:49:36.816Z,19.91
2022-09-12T09:52:02.965Z,19.90
2022-09-12T09:54:29.053Z,19.99
2022-09-12T09:56:55.148Z,20.02
2022-09-12T09:59:21.293Z,20.10
2022-09-12T10:01:47.501Z,20.14
2022-09-12T10:04:13.663Z,20.14
2022-09-12T10:06:39.776Z,20.17
2022-09-12T10:09:05.900Z,20.18
2022-09-12T10:11:31.986Z,20.18
2022-09-12T10:13:58.080Z,20.26
2022-09-12T10:16:24.165Z,20.30
2022-09-12T10:18:50.286Z,20.44
2022-09-12T10:21:16.404Z,20.43
2022-09-12T10:23:42.589Z,20.55
2022-09-12T10:26:09.709Z,20.50
2022-09-12T10:28:35.905Z,20.54
2022-09-12T10:31:02.098Z,20.57
2022-09-12T10:33:28.206Z,20.63
2022-09-12T10:35:54.304Z,20.58
2022-09-12T10:38:20.384Z,20.56
2022-09-12T10:40:46.478Z,20.54
2022-09-12T10:43:12.594Z,20.55
2022-09-12T10:45:38.831Z,20.47
2022-09-12T10:48:07.677Z,20.49
2022-09-12T10:50:33.973Z,20.58
2022-09-12T10:53:00.053Z,20.64
2022-09-12T10:55:26.141Z,20.63
2022-09-12T10:57:52.258Z,20.67
2022-09-12T11:00:18.342Z,20.78
2022-09-12T11:02:44.488Z,20.81
2022-09-12T11:05:10.663Z,21.08
2022-09-12T11:07:36.764Z,21.26
2022-09-12T11:10:02.868Z,21.33
2022-09-12T11:12:29.247Z,21.35
2022-09-12T11:14:55.362Z,21.19
2022-09-12T11:17:21.504Z,21.18
2022-09-12T11:19:47.678Z,21.27
2022-09-12T11:22:13.921Z,21.49
2022-09-12T11:24:40.017Z,21.56
2022-09-12T11:27:06.134Z,21.53
2022-09-12T11:29:32.227Z,21.53
2022-09-12T11:31:58.336Z,21.50
2022-09-12T11:34:24.440Z,21.56
2022-09-12T11:36:50.531Z,21.65
2022-09-12T11:39:16.629Z,21.79
2022-09-12T11:41:43.100Z,21.84
2022-09-12T11:44:09.199Z,21.98
2022-09-12T11:46:35.295Z,22.04
2022-09-12T11:49:01.404Z,22.12
2022-09-12T11:51:27.499Z,22.04
2022-09-12T11:53:53.643Z,22.16
2022-09-12T11:56:19.757Z,22.17
2022-09-12T11:58:45.969Z,22.17
2022-09-12T12:01:12.195Z,22.24
2022-09-12T12:03:38.385Z,22.35
2022-09-12T12:06:04.501Z,22.46
2022-09-12T12:08:30.594Z,22.45
2022-09-12T12:10:56.705Z,22.38
2022-09-12T12:13:22.812Z,22.31
2022-09-12T12:15:48.915Z,22.30
2022-09-12T12:18:15.130Z,22.47
2022-09-12T12:20:41.222Z,22.51
2022-09-12T12:23:07.309Z,22.49
2022-09-12T12:25:33.458Z,22.49
2022-09-12T12:27:59.557Z,22.48
2022-09-12T12:30:25.673Z,22.57
2022-09-12T12:32:51.811Z,22.65
2022-09-12T12:35:17.902Z,22.67
2022-09-12T12:37:43.994Z,22.63
2022-09-12T12:40:10.201Z,22.66
2022-09-12T12:42:36.393Z,22.74
2022-09-12T12:45:02.496Z,22.87
2022-09-12T12:47:29.100Z,22.93
2022-09-12T12:49:55.198Z,22.88
2022-09-12T12:52:21.351Z,22.97
2022-09-12T12:54:47.509Z,22.95
2022-09-12T12:57:13.659Z,22.95
2022-09-12T12:59:39.756Z,22.96
2022-09-12T13:02:06.364Z,23.02
2022-09-12T13:04:32.509Z,23.06
2022-09-12T13:06:58.613Z,23.15
2022-09-12T13:09:24.728Z,23.07
2022-09-12T13:11:50.827Z,23.11
2022-09-12T13:14:16.930Z,23.05
2022-09-12T13:16:43.685Z,23.09
2022-09-12T13:19:09.825Z,23.24
2022-09-12T13:21:35.924Z,23.34
2022-09-12T13:24:02.072Z,23.46
2022-09-12T13:26:28.168Z,23.42
2022-09-12T13:28:54.257Z,23.40
2022-09-12T13:31:20.453Z,23.45
2022-09-12T13:33:46.657Z,23.56
2022-09-12T13:36:12.764Z,23.66
2022-09-12T13:38:38.857Z,23.67
2022-09-12T13:41:04.954Z,23.72
2022-09-12T13:43:31.108Z,23.90
2022-09-12T13:45:57.440Z,23.83
2022-09-12T13:48:23.585Z,23.77
2022-09-12T13:50:49.685Z,23.71
2022-09-12T13:53:15.819Z,23.84
2022-09-12T13:55:41.934Z,24.02
2022-09-12T13:58:08.027Z,24.13
2022-09-12T14:00:34.160Z,24.06
2022-09-12T14:03:00.325Z,24.08
2022-09-12T14:05:26.481Z,24.23
2022-09-12T14:07:53.088Z,24.32
2022-09-12T14:10:19.172Z,24.43
2022-09-12T14:12:45.262Z,24.45
2022-09-12T14:15:11.370Z,24.54
2022-09-12T14:17:37.477Z,24.60
2022-09-12T14:20:03.657Z,24.58
2022-09-12T14:22:29.818Z,24.48
2022-09-12T14:24:55.927Z,24.61
2022-09-12T14:27:22.028Z,24.82
2022-09-12T14:29:49.068Z,24.78
2022-09-12T14:32:15.190Z,25.01
2022-09-12T14:34:41.282Z,25.05
2022-09-12T14:37:07.432Z,25.15
2022-09-12T14:39:33.547Z,25.28
2022-09-12T14:41:59.654Z,25.45
2022-09-12T14:44:25.752Z,25.68
2022-09-12T14:46:51.842Z,25.59
2022-09-12T14:49:17.941Z,25.68
2022-09-12T14:51:47.121Z,25.51
2022-09-12T14:54:15.496Z,25.81
2022-09-12T14:56:41.599Z,26.22
2022-09-12T14:59:07.718Z,26.53
2022-09-12T15:01:33.842Z,26.87
2022-09-12T15:04:00.060Z,27.14
2022-09-12T15:06:26.224Z,27.03
2022-09-12T15:08:52.327Z,26.98
2022-09-12T15:11:18.411Z,27.66
2022-09-12T15:13:44.538Z,28.36
2022-09-12T15:16:10.726Z,29.39
2022-09-12T15:18:36.863Z,29.80
2022-09-12T15:21:02.993Z,30.18
2022-09-12T15:23:29.094Z,30.50
2022-09-12T15:25:55.259Z,32.19
2022-09-12T15:28:21.881Z,32.62
2022-09-12T15:30:48.031Z,32.53
2022-09-12T15:33:14.148Z,31.88
2022-09-12T15:35:40.252Z,31.75
2022-09-12T15:38:06.354Z,31.06
2022-09-12T15:40:32.450Z,30.75
2022-09-12T15:42:58.570Z,30.45
2022-09-12T15:45:24.690Z,31.12
2022-09-12T15:47:50.791Z,30.68
2022-09-12T15:50:16.913Z,30.70
2022-09-12T15:52:43.012Z,31.01
2022-09-12T15:55:09.144Z,30.93
2022-09-12T15:57:35.366Z,30.64
2022-09-12T16:00:01.478Z,30.39
2022-09-12T16:02:27.589Z,30.44
2022-09-12T16:04:53.770Z,30.47
2022-09-12T16:07:19.871Z,30.99
2022-09-12T16:09:45.965Z,30.85
2022-09-12T16:12:12.117Z,30.24
2022-09-12T16:14:38.246Z,30.03
2022-09-12T16:17:04.333Z,29.87
2022-09-12T16:19:30.455Z,29.62
2022-09-12T16:21:56.556Z,29.27
2022-09-12T16:24:22.678Z,29.07
2022-09-12T16:26:48.800Z,29.36
2022-09-12T16:29:14.957Z,29.29
2022-09-12T16:31:41.082Z,28.85
2022-09-12T16:34:07.200Z,28.03
2022-09-12T16:36:33.281Z,28.12
2022-09-12T16:38:59.366Z,28.31
2022-09-12T16:41:25.494Z,28.30
2022-09-12T16:43:51.590Z,27.88
2022-09-12T16:46:17.743Z,27.66
2022-09-12T16:48:46.813Z,27.72
2022-09-12T16:51:15.599Z,27.53
2022-09-12T16:53:41.719Z,27.68
2022-09-12T16:56:07.827Z,27.77
2022-09-12T16:58:35.628Z,27.79
2022-09-12T17:01:04.682Z,27.68
2022-09-12T17:03:31.074Z,27.55
2022-09-12T17:05:57.190Z,27.48
2022-09-12T17:08:23.284Z,27.49
2022-09-12T17:10:49.402Z,27.71
2022-09-12T17:13:15.498Z,28.15
2022-09-12T17:15:41.636Z,28.24
2022-09-12T17:18:07.782Z,28.13
2022-09-12T17:20:33.898Z,27.97
2022-09-12T17:22:59.984Z,28.01
2022-09-12T17:25:26.111Z,27.82
2022-09-12T17:27:52.215Z,27.60
2022-09-12T17:30:18.313Z,27.21
2022-09-12T17:32:44.436Z,26.72
2022-09-12T17:35:10.534Z,26.31
2022-09-12T17:37:36.624Z,25.98
2022-09-12T17:40:02.797Z,25.74
2022-09-12T17:42:28.946Z,25.44
2022-09-12T17:44:55.030Z,25.23
2022-09-12T17:47:23.101Z,25.03
2022-09-12T17:49:49.219Z,24.85
2022-09-12T17:52:15.323Z,24.54
2022-09-12T17:54:41.456Z,24.21
2022-09-12T17:57:07.567Z,24.15
2022-09-12T17:59:33.657Z,23.93
2022-09-12T18:01:59.901Z,23.93
2022-09-12T18:04:26.075Z,23.72
2022-09-12T18:06:52.178Z,23.57
2022-09-12T18:09:18.519Z,23.55
2022-09-12T18:11:44.614Z,23.48
2022-09-12T18:14:13.990Z,23.33
2022-09-12T18:16:40.570Z,23.25
2022-09-12T18:19:06.691Z,23.09
2022-09-12T18:21:32.778Z,22.88
2022-09-12T18:23:58.918Z,22.80
2022-09-12T18:26:25.053Z,22.69
2022-09-12T18:28:51.129Z,22.56
2022-09-12T18:31:17.560Z,22.48
2022-09-12T18:33:43.699Z,22.46
2022-09-12T18:36:09.789Z,22.36
2022-09-12T18:38:35.881Z,22.20
2022-09-12T18:41:01.978Z,22.16
2022-09-12T18:43:28.081Z,22.04
2022-09-12T18:45:54.199Z,21.95
2022-09-12T18:48:20.343Z,21.83
2022-09-12T18:50:46.435Z,21.84
2022-09-12T18:53:12.573Z,21.76
2022-09-12T18:55:38.661Z,21.64
2022-09-12T18:58:04.740Z,21.58
2022-09-12T19:00:30.943Z,21.46
2022-09-12T19:02:57.071Z,21.43
2022-09-12T19:05:23.163Z,21.34
2022-09-12T19:07:49.362Z,21.31
2022-09-12T19:10:15.467Z,21.16
2022-09-12T19:12:41.571Z,21.10
2022-09-12T19:15:07.702Z,21.04
2022-09-12T19:17:33.805Z,20.99
2022-09-12T19:19:59.918Z,20.96
2022-09-12T19:22:26.251Z,20.91
2022-09-12T19:24:52.329Z,20.84
2022-09-12T19:27:18.434Z,20.81
2022-09-12T19:29:44.547Z,20.75
2022-09-12T19:32:10.642Z,20.68
2022-09-12T19:34:36.759Z,20.70
2022-09-12T19:37:03.174Z,20.68
2022-09-12T19:39:29.260Z,20.62
2022-09-12T19:41:55.339Z,20.59
2022-09-12T19:44:21.703Z,20.60
2022-09-12T19:46:47.894Z,20.56
2022-09-12T19:49:14.063Z,20.52
2022-09-12T19:51:40.238Z,20.50
2022-09-12T19:54:06.357Z,20.39
2022-09-12T19:56:32.451Z,20.34
2022-09-12T19:58:58.626Z,20.32
2022-09-12T20:01:24.918Z,20.29
2022-09-12T20:03:51.255Z,20.28
2022-09-12T20:06:17.391Z,20.22
2022-09-12T20:08:43.508Z,20.17
2022-09-12T20:11:09.602Z,20.18
2022-09-12T20:13:35.735Z,20.28
2022-09-12T20:16:01.866Z,20.31
2022-09-12T20:18:28.032Z,20.21
2022-09-12T20:20:54.175Z,20.21
2022-09-12T20:23:20.306Z,20.19
2022-09-12T20:25:46.400Z,20.18
2022-09-12T20:28:12.533Z,20.06
2022-09-12T20:30:38.646Z,20.07
2022-09-12T20:33:04.750Z,19.99
2022-09-12T20:35:30.848Z,20.00
2022-09-12T20:37:56.947Z,19.96
2022-09-12T20:40:23.095Z,19.97
2022-09-12T20:42:49.206Z,19.97
2022-09-12T20:45:15.313Z,19.91
2022-09-12T20:47:41.392Z,19.95
2022-09-12T20:50:07.502Z,19.97
2022-09-12T20:52:33.584Z,19.97
2022-09-12T20:54:59.686Z,19.97
2022-09-12T20:57:25.788Z,20.03
2022-09-12T20:59:51.894Z,20.02
2022-09-12T21:02:18.054Z,19.92
2022-09-12T21:04:44.266Z,19.85
2022-09-12T21:07:10.361Z,19.80
2022-09-12T21:09:36.448Z,19.84
2022-09-12T21:12:02.597Z,19.79
2022-09-12T21:14:28.717Z,19.77
2022-09-12T21:16:54.847Z,19.76
2022-09-12T21:19:20.997Z,19.78
2022-09-12T21:21:47.104Z,19.75
2022-09-12T21:24:13.207Z,19.76
2022-09-12T21:26:39.425Z,19.74
2022-09-12T21:29:05.512Z,19.62
2022-09-12T21:31:31.676Z,19.67
2022-09-12T21:33:57.845Z,19.62
2022-09-12T21:36:23.946Z,19.65
2022-09-12T21:38:50.040Z,19.64
2022-09-12T21:41:16.418Z,19.60
2022-09-12T21:43:42.550Z,19.58
2022-09-12T21:46:08.754Z,19.57
2022-09-12T21:48:34.877Z,19.54
2022-09-12T21:51:00.969Z,19.53
2022-09-12T21:53:27.050Z,19.51
2022-09-12T21:55:53.190Z,19.49
2022-09-12T21:58:19.296Z,19.47
2022-09-12T22:00:45.447Z,19.43
2022-09-12T22:03:11.601Z,19.43
2022-09-12T22:05:37.714Z,19.46
2022-09-12T22:08:03.803Z,19.40
2022-09-12T22:10:29.941Z,19.39
2022-09-12T22:12:56.048Z,19.34
2022-09-12T22:18:08.264Z,19.35
2022-09-12T22:20:34.383Z,19.33
2022-09-12T22:23:00.476Z,19.28
2022-09-12T22:25:26.622Z,19.21
2022-09-12T22:27:52.724Z,19.26
2022-09-12T22:30:18.813Z,19.28
2022-09-12T22:32:44.918Z,19.21
2022-09-12T22:35:11.023Z,19.21
2022-09-12T22:37:37.138Z,19.23
2022-09-12T22:40:03.355Z,19.21
2022-09-12T22:42:29.541Z,19.23
2022-09-12T22:44:55.635Z,19.20
2022-09-12T22:47:21.786Z,19.15
2022-09-12T22:49:47.873Z,19.09
2022-09-12T22:52:13.964Z,19.08
2022-09-12T22:54:40.077Z,19.03
2022-09-12T22:57:06.167Z,19.02
2022-09-12T22:59:32.288Z,19.07
2022-09-12T23:01:58.399Z,19.05
2022-09-12T23:04:24.527Z,19.00
2022-09-12T23:06:50.637Z,19.05
2022-09-12T23:09:16.782Z,19.10
2022-09-12T23:11:42.903Z,19.12
2022-09-12T23:14:08.994Z,19.16
2022-09-12T23:16:35.632Z,19.14
2022-09-12T23:19:01.832Z,19.11
2022-09-12T23:21:27.931Z,19.09
2022-09-12T23:23:54.052Z,19.07
2022-09-12T23:26:20.164Z,19.12
2022-09-12T23:28:46.282Z,19.14
2022-09-12T23:31:12.429Z,19.15
2022-09-12T23:33:38.570Z,19.08
2022-09-12T23:36:04.649Z,19.08
2022-09-12T23:38:30.767Z,19.05
2022-09-12T23:40:56.855Z,19.09
2022-09-12T23:43:22.978Z,19.09
2022-09-12T23:45:49.098Z,19.05
2022-09-12T23:48:15.249Z,19.01
2022-09-12T23:50:41.350Z,19.07
2022-09-12T23:53:07.462Z,19.10
2022-09-12T23:55:33.550Z,19.05
2022-09-12T23:57:59.642Z,19.12
